createdAt,value
2023-05-22T00:02:19.604Z,94338.03
2023-05-22T00:04:47.007Z,94334.31
2023-05-22T00:07:13.846Z,94337.31
2023-05-22T00:09:40.626Z,94333.81
2023-05-22T00:12:07.912Z,94326.03
2023-05-22T00:14:34.623Z,94327.06
2023-05-22T00:17:01.386Z,94328.13
2023-05-22T00:19:30.550Z,94328.97
2023-05-22T00:21:57.341Z,94327.22
2023-05-22T00:24:27.087Z,94334.09
2023-05-22T00:26:53.824Z,94327.38
2023-05-22T00:29:20.488Z,94335.84
2023-05-22T00:31:47.474Z,94333.84
2023-05-22T00:34:14.442Z,94335.81
2023-05-22T00:36:41.170Z,94336.69
2023-05-22T00:39:07.921Z,94331.03
2023-05-22T00:41:34.597Z,94329.25
2023-05-22T00:44:01.510Z,94334.88
2023-05-22T00:46:28.676Z,94330.44
2023-05-22T00:48:55.472Z,94336.06
2023-05-22T00:51:22.741Z,94331.28
2023-05-22T00:53:50.515Z,94326.38
2023-05-22T00:56:18.620Z,94325.47
2023-05-22T00:58:45.472Z,94325.09
2023-05-22T01:01:13.074Z,94328.06
2023-05-22T01:03:47.978Z,94331.75
2023-05-22T01:06:16.317Z,94334.03
2023-05-22T01:08:43.173Z,94331.72
2023-05-22T01:11:32.300Z,94341.91
2023-05-22T01:14:05.078Z,94335.56
2023-05-22T01:16:46.802Z,94339.22
2023-05-22T01:19:19.742Z,94338.88
2023-05-22T01:22:14.827Z,94339.00
2023-05-22T01:24:47.626Z,94343.41
2023-05-22T01:27:59.116Z,94344.75
2023-05-22T01:30:58.330Z,94352.31
2023-05-22T01:33:26.311Z,94356.72
2023-05-22T01:35:57.440Z,94349.09
2023-05-22T01:38:25.452Z,94354.88
2023-05-22T01:40:52.925Z,94347.28
2023-05-22T01:43:20.330Z,94357.28
2023-05-22T01:45:47.076Z,94352.31
2023-05-22T01:48:13.907Z,94360.59
2023-05-22T01:50:41.182Z,94359.16
2023-05-22T01:53:23.257Z,94372.69
2023-05-22T01:56:06.538Z,94371.81
2023-05-22T01:58:48.507Z,94367.34
2023-05-22T02:01:17.640Z,94373.47
2023-05-22T02:03:46.567Z,94371.84
2023-05-22T02:06:14.263Z,94375.84
2023-05-22T02:08:42.365Z,94366.28
2023-05-22T02:11:11.269Z,94362.25
2023-05-22T02:13:38.496Z,94369.56
2023-05-22T02:16:06.386Z,94366.03
2023-05-22T02:18:33.796Z,94371.13
2023-05-22T02:21:01.180Z,94376.91
2023-05-22T02:23:29.846Z,94372.66
2023-05-22T02:25:57.166Z,94378.44
2023-05-22T02:28:24.111Z,94379.47
2023-05-22T02:30:50.932Z,94374.50
2023-05-22T02:33:20.450Z,94381.53
2023-05-22T02:35:47.223Z,94377.97
2023-05-22T02:38:13.889Z,94379.00
2023-05-22T02:40:40.984Z,94376.16
2023-05-22T02:43:07.846Z,94382.63
2023-05-22T02:45:34.617Z,94372.09
2023-05-22T02:48:03.754Z,94380.00
2023-05-22T02:50:30.680Z,94381.94
2023-05-22T02:52:57.487Z,94383.91
2023-05-22T02:55:24.330Z,94379.81
2023-05-22T02:57:51.024Z,94377.50
2023-05-22T03:00:18.273Z,94383.47
2023-05-22T03:02:45.040Z,94384.00
2023-05-22T03:05:11.873Z,94388.34
2023-05-22T03:07:38.643Z,94394.88
2023-05-22T03:10:06.120Z,94390.59
2023-05-22T03:12:33.012Z,94383.69
2023-05-22T03:14:59.756Z,94388.09
2023-05-22T03:17:26.438Z,94385.94
2023-05-22T03:19:53.144Z,94393.66
2023-05-22T03:22:19.933Z,94388.88
2023-05-22T03:24:46.573Z,94390.13
2023-05-22T03:27:16.268Z,94388.50
2023-05-22T03:29:43.081Z,94386.56
2023-05-22T03:32:09.789Z,94389.69
2023-05-22T03:34:36.682Z,94392.84
2023-05-22T03:37:03.496Z,94385.44
2023-05-22T03:39:30.173Z,94388.59
2023-05-22T03:41:56.941Z,94389.81
2023-05-22T03:44:23.705Z,94389.63
2023-05-22T03:46:50.350Z,94387.25
2023-05-22T03:49:17.057Z,94385.84
2023-05-22T03:51:43.785Z,94387.06
2023-05-22T03:54:10.485Z,94384.44
2023-05-22T03:56:37.546Z,94387.06
2023-05-22T03:59:04.336Z,94396.00
2023-05-22T04:01:31.093Z,94396.72
2023-05-22T04:03:57.875Z,94390.03
2023-05-22T04:06:25.739Z,94398.44
2023-05-22T04:08:52.592Z,94389.28
2023-05-22T04:11:19.844Z,94388.59
2023-05-22T04:13:49.553Z,94396.00
2023-05-22T04:16:17.528Z,94401.97
2023-05-22T04:18:44.461Z,94396.50
2023-05-22T04:21:11.177Z,94407.25
2023-05-22T04:23:38.736Z,94402.69
2023-05-22T04:26:08.851Z,94406.56
2023-05-22T04:28:35.620Z,94407.25
2023-05-22T04:31:02.505Z,94406.94
2023-05-22T04:33:30.334Z,94412.94
2023-05-22T04:35:57.072Z,94411.72
2023-05-22T04:38:26.426Z,94409.28
2023-05-22T04:40:53.116Z,94408.59
2023-05-22T04:43:20.002Z,94416.19
2023-05-22T04:45:46.781Z,94420.44
2023-05-22T04:48:13.745Z,94408.69
2023-05-22T04:50:40.743Z,94411.50
2023-05-22T04:53:07.572Z,94413.88
2023-05-22T04:55:34.287Z,94417.22
2023-05-22T04:58:01.716Z,94424.13
2023-05-22T05:00:29.007Z,94423.09
2023-05-22T05:02:57.590Z,94421.34
2023-05-22T05:05:24.595Z,94421.03
2023-05-22T05:07:51.899Z,94431.28
2023-05-22T05:10:18.925Z,94423.06
2023-05-22T05:12:46.009Z,94428.78
2023-05-22T05:15:12.840Z,94419.81
2023-05-22T05:17:39.581Z,94428.34
2023-05-22T05:20:07.736Z,94420.63
2023-05-22T05:22:34.476Z,94421.03
2023-05-22T05:25:01.805Z,94412.06
2023-05-22T05:27:28.594Z,94416.31
2023-05-22T05:29:55.238Z,94412.13
2023-05-22T05:32:22.053Z,94414.66
2023-05-22T05:34:48.870Z,94410.97
2023-05-22T05:37:15.627Z,94421.25
2023-05-22T05:39:42.291Z,94413.03
2023-05-22T05:42:09.056Z,94425.41
2023-05-22T05:44:35.920Z,94414.47
2023-05-22T05:47:02.723Z,94418.28
2023-05-22T05:49:29.621Z,94416.72
2023-05-22T05:51:56.627Z,94417.09
2023-05-22T05:54:25.471Z,94420.81
2023-05-22T05:56:52.451Z,94423.16
2023-05-22T05:59:19.130Z,94427.59
2023-05-22T06:01:47.218Z,94428.69
2023-05-22T06:04:14.403Z,94425.03
2023-05-22T06:06:42.457Z,94432.13
2023-05-22T06:09:10.327Z,94431.25
2023-05-22T06:11:37.518Z,94430.44
2023-05-22T06:14:07.089Z,94432.75
2023-05-22T06:16:33.896Z,94433.84
2023-05-22T06:19:00.925Z,94430.88
2023-05-22T06:21:27.722Z,94432.66
2023-05-22T06:23:54.427Z,94437.84
2023-05-22T06:26:22.496Z,94440.88
2023-05-22T06:28:49.188Z,94437.38
2023-05-22T06:31:15.812Z,94429.84
2023-05-22T06:33:43.468Z,94425.13
2023-05-22T06:36:11.733Z,94428.66
2023-05-22T06:38:39.342Z,94423.19
2023-05-22T06:41:06.570Z,94431.50
2023-05-22T06:43:33.427Z,94428.72
2023-05-22T06:46:00.229Z,94430.50
2023-05-22T06:48:26.949Z,94429.28
2023-05-22T06:50:53.699Z,94425.25
2023-05-22T06:53:20.433Z,94423.69
2023-05-22T06:55:47.244Z,94419.13
2023-05-22T06:58:13.915Z,94426.94
2023-05-22T07:00:40.916Z,94432.94
2023-05-22T07:03:07.817Z,94423.13
2023-05-22T07:05:34.642Z,94427.41
2023-05-22T07:08:02.086Z,94435.53
2023-05-22T07:10:28.872Z,94442.97
2023-05-22T07:12:55.617Z,94432.03
2023-05-22T07:15:22.342Z,94435.75
2023-05-22T07:17:49.436Z,94439.81
2023-05-22T07:20:16.915Z,94445.28
2023-05-22T07:22:43.900Z,94444.63
2023-05-22T07:25:10.672Z,94448.84
2023-05-22T07:27:37.333Z,94444.25
2023-05-22T07:30:04.618Z,94441.97
2023-05-22T07:32:31.491Z,94444.81
2023-05-22T07:34:58.354Z,94443.56
2023-05-22T07:37:25.128Z,94440.19
2023-05-22T07:39:51.786Z,94444.44
2023-05-22T07:42:18.556Z,94452.56
2023-05-22T07:44:45.332Z,94444.06
2023-05-22T07:47:12.046Z,94451.31
2023-05-22T07:49:38.716Z,94445.13
2023-05-22T07:52:06.048Z,94441.38
2023-05-22T07:54:32.812Z,94438.03
2023-05-22T07:57:03.281Z,94444.53
2023-05-22T07:59:30.123Z,94449.69
2023-05-22T08:01:58.428Z,94443.13
2023-05-22T08:04:26.258Z,94449.13
2023-05-22T08:06:53.175Z,94448.03
2023-05-22T08:09:21.633Z,94448.56
2023-05-22T08:11:48.593Z,94437.53
2023-05-22T08:14:15.531Z,94445.84
2023-05-22T08:16:42.310Z,94443.69
2023-05-22T08:19:09.057Z,94449.88
2023-05-22T08:21:36.039Z,94444.91
2023-05-22T08:24:02.743Z,94445.94
2023-05-22T08:26:31.412Z,94444.69
2023-05-22T08:28:59.091Z,94448.75
2023-05-22T08:31:26.215Z,94439.50
2023-05-22T08:33:52.989Z,94439.47
2023-05-22T08:36:20.457Z,94450.25
2023-05-22T08:38:47.109Z,94442.94
2023-05-22T08:41:14.392Z,94436.88
2023-05-22T08:43:42.101Z,94449.97
2023-05-22T08:46:10.032Z,94446.56
2023-05-22T08:48:38.031Z,94444.75
2023-05-22T08:51:06.000Z,94438.75
2023-05-22T08:53:36.925Z,94446.53
2023-05-22T08:56:06.121Z,94449.56
2023-05-22T08:58:35.158Z,94446.38
2023-05-22T09:01:03.242Z,94446.72
2023-05-22T09:03:34.416Z,94441.47
2023-05-22T09:06:02.366Z,94440.78
2023-05-22T09:08:29.223Z,94446.34
2023-05-22T09:10:56.588Z,94444.53
2023-05-22T09:13:32.423Z,94450.16
2023-05-22T09:16:12.566Z,94451.91
2023-05-22T09:18:40.577Z,94446.44
2023-05-22T09:21:21.700Z,94441.88
2023-05-22T09:23:54.974Z,94440.25
2023-05-22T09:26:21.707Z,94439.84
2023-05-22T09:28:48.357Z,94444.25
2023-05-22T09:31:15.336Z,94443.31
2023-05-22T09:33:44.282Z,94443.75
2023-05-22T09:36:11.317Z,94445.09
2023-05-22T09:38:38.432Z,94445.09
2023-05-22T09:41:06.234Z,94440.78
2023-05-22T09:43:33.764Z,94435.34
2023-05-22T09:46:06.880Z,94443.81
2023-05-22T09:48:37.425Z,94442.16
2023-05-22T09:51:05.202Z,94447.56
2023-05-22T09:53:33.267Z,94448.41
2023-05-22T09:56:01.105Z,94447.59
2023-05-22T09:58:33.243Z,94450.88
2023-05-22T10:01:01.782Z,94455.78
2023-05-22T10:03:29.061Z,94443.38
2023-05-22T10:05:58.923Z,94453.63
2023-05-22T10:08:29.164Z,94446.09
2023-05-22T10:10:56.026Z,94451.41
2023-05-22T10:13:25.269Z,94445.09
2023-05-22T10:15:52.701Z,94448.22
2023-05-22T10:18:19.940Z,94443.91
2023-05-22T10:20:50.053Z,94445.03
2023-05-22T10:23:17.889Z,94445.31
2023-05-22T10:25:45.906Z,94437.78
2023-05-22T10:28:18.531Z,94432.88
2023-05-22T10:30:56.504Z,94432.16
2023-05-22T10:33:28.712Z,94435.00
2023-05-22T10:36:04.036Z,94433.19
2023-05-22T10:38:49.451Z,94432.78
2023-05-22T10:41:16.944Z,94433.47
2023-05-22T10:43:44.397Z,94432.34
2023-05-22T10:46:13.338Z,94428.72
2023-05-22T10:48:41.374Z,94426.59
2023-05-22T10:51:08.959Z,94429.84
2023-05-22T10:53:36.680Z,94433.78
2023-05-22T10:56:19.013Z,94420.81
2023-05-22T10:58:56.969Z,94429.84
2023-05-22T11:01:26.593Z,94427.59
2023-05-22T11:04:06.834Z,94425.19
2023-05-22T11:06:43.342Z,94410.97
2023-05-22T11:09:19.988Z,94406.88
2023-05-22T11:11:47.663Z,94406.28
2023-05-22T11:14:20.793Z,94402.34
2023-05-22T11:16:47.554Z,94402.63
2023-05-22T11:19:23.456Z,94407.38
2023-05-22T11:21:51.180Z,94398.50
2023-05-22T11:24:18.524Z,94401.56
2023-05-22T11:27:01.779Z,94397.53
2023-05-22T11:29:29.444Z,94401.03
2023-05-22T11:31:58.096Z,94399.34
2023-05-22T11:34:25.691Z,94397.75
2023-05-22T11:36:59.958Z,94390.56
2023-05-22T11:39:27.362Z,94397.69
2023-05-22T11:41:54.756Z,94388.88
2023-05-22T11:44:21.517Z,94396.50
2023-05-22T11:46:48.442Z,94385.84
2023-05-22T11:49:15.326Z,94384.63
2023-05-22T11:51:42.331Z,94382.41
2023-05-22T11:54:09.027Z,94381.75
2023-05-22T11:56:35.789Z,94371.50
2023-05-22T11:59:02.451Z,94375.84
2023-05-22T12:01:29.235Z,94373.63
2023-05-22T12:03:56.121Z,94379.16
2023-05-22T12:06:23.186Z,94375.19
2023-05-22T12:08:50.104Z,94374.84
2023-05-22T12:11:16.838Z,94370.44
2023-05-22T12:13:44.092Z,94368.09
2023-05-22T12:16:28.652Z,94369.13
2023-05-22T12:18:55.470Z,94360.41
2023-05-22T12:21:22.327Z,94370.91
2023-05-22T12:23:50.864Z,94354.94
2023-05-22T12:26:17.962Z,94349.81
2023-05-22T12:28:44.751Z,94344.56
2023-05-22T12:31:11.464Z,94351.22
2023-05-22T12:33:39.929Z,94347.31
2023-05-22T12:36:10.528Z,94343.34
2023-05-22T12:38:41.333Z,94348.69
2023-05-22T12:41:07.974Z,94346.97
2023-05-22T12:43:34.766Z,94348.69
2023-05-22T12:46:02.862Z,94344.00
2023-05-22T12:48:29.840Z,94333.06
2023-05-22T12:50:56.590Z,94340.91
2023-05-22T12:53:23.262Z,94332.53
2023-05-22T12:55:49.945Z,94336.56
2023-05-22T12:58:16.681Z,94337.03
2023-05-22T13:00:43.385Z,94339.72
2023-05-22T13:03:12.151Z,94337.19
2023-05-22T13:05:39.224Z,94340.78
2023-05-22T13:08:06.065Z,94337.72
2023-05-22T13:10:32.792Z,94336.72
2023-05-22T13:12:59.433Z,94333.34
2023-05-22T13:15:29.575Z,94330.34
2023-05-22T13:17:56.987Z,94327.09
2023-05-22T13:20:23.773Z,94323.03
2023-05-22T13:22:50.517Z,94322.53
2023-05-22T13:25:19.143Z,94316.97
2023-05-22T13:27:46.445Z,94316.47
2023-05-22T13:30:13.507Z,94312.69
2023-05-22T13:32:40.527Z,94316.09
2023-05-22T13:35:07.696Z,94315.78
2023-05-22T13:37:34.537Z,94309.78
2023-05-22T13:40:01.417Z,94316.66
2023-05-22T13:42:28.331Z,94312.47
2023-05-22T13:44:55.042Z,94310.38
2023-05-22T13:47:23.277Z,94309.13
2023-05-22T13:49:50.122Z,94317.00
2023-05-22T13:52:16.892Z,94308.66
2023-05-22T13:54:43.822Z,94310.72
2023-05-22T13:57:10.633Z,94314.16
2023-05-22T13:59:37.284Z,94315.16
2023-05-22T14:02:04.259Z,94312.69
2023-05-22T14:04:31.095Z,94313.84
2023-05-22T14:06:57.735Z,94309.50
2023-05-22T14:09:24.644Z,94310.59
2023-05-22T14:11:51.453Z,94303.84
2023-05-22T14:14:23.868Z,94307.69
2023-05-22T14:16:54.104Z,94293.28
2023-05-22T14:19:20.941Z,94304.59
2023-05-22T14:21:49.816Z,94298.38
2023-05-22T14:24:16.699Z,94299.66
2023-05-22T14:26:44.199Z,94295.16
2023-05-22T14:29:11.833Z,94290.56
2023-05-22T14:31:50.441Z,94287.41
2023-05-22T14:34:18.340Z,94290.88
2023-05-22T14:36:45.025Z,94288.44
2023-05-22T14:39:11.798Z,94290.00
2023-05-22T14:41:38.493Z,94291.59
2023-05-22T14:44:05.272Z,94285.25
2023-05-22T14:46:32.066Z,94291.91
2023-05-22T14:48:58.819Z,94296.97
2023-05-22T14:51:25.650Z,94305.13
2023-05-22T14:53:52.366Z,94307.09
2023-05-22T14:56:19.116Z,94297.78
2023-05-22T14:58:45.827Z,94302.13
2023-05-22T15:01:12.490Z,94305.88
2023-05-22T15:03:39.256Z,94312.44
2023-05-22T15:06:06.151Z,94309.34
2023-05-22T15:08:32.874Z,94308.69
2023-05-22T15:10:59.726Z,94290.09
2023-05-22T15:13:26.469Z,94301.06
2023-05-22T15:15:53.311Z,94294.25
2023-05-22T15:18:20.269Z,94289.31
2023-05-22T15:20:47.018Z,94293.94
2023-05-22T15:23:13.855Z,94289.75
2023-05-22T15:25:41.171Z,94283.25
2023-05-22T15:28:08.105Z,94285.00
2023-05-22T15:30:39.196Z,94288.44
2023-05-22T15:33:05.968Z,94286.59
2023-05-22T15:35:32.782Z,94284.91
2023-05-22T15:37:59.639Z,94282.22
2023-05-22T15:40:26.515Z,94284.38
2023-05-22T15:42:54.177Z,94280.28
2023-05-22T15:45:21.396Z,94285.06
2023-05-22T15:47:48.442Z,94289.31
2023-05-22T15:50:15.238Z,94296.66
2023-05-22T15:52:41.955Z,94298.09
2023-05-22T15:55:08.793Z,94303.28
2023-05-22T15:57:35.629Z,94302.16
2023-05-22T16:00:02.444Z,94291.06
2023-05-22T16:02:29.255Z,94297.16
2023-05-22T16:04:56.331Z,94293.69
2023-05-22T16:07:23.104Z,94301.00
2023-05-22T16:09:50.472Z,94299.03
2023-05-22T16:12:17.279Z,94291.47
2023-05-22T16:14:44.093Z,94293.78
2023-05-22T16:17:10.889Z,94292.78
2023-05-22T16:19:37.800Z,94287.66
2023-05-22T16:22:04.842Z,94289.59
2023-05-22T16:24:31.594Z,94290.09
2023-05-22T16:27:00.135Z,94294.41
2023-05-22T16:29:26.986Z,94295.31
2023-05-22T16:31:53.884Z,94293.31
2023-05-22T16:34:20.601Z,94287.69
2023-05-22T16:36:47.257Z,94287.13
2023-05-22T16:39:15.611Z,94282.19
2023-05-22T16:41:42.287Z,94285.50
2023-05-22T16:44:08.980Z,94290.00
2023-05-22T16:46:35.709Z,94295.16
2023-05-22T16:49:02.421Z,94296.63
2023-05-22T16:51:29.354Z,94297.56
2023-05-22T16:53:56.047Z,94293.31
2023-05-22T16:56:22.811Z,94300.72
2023-05-22T16:58:49.546Z,94297.44
2023-05-22T17:01:16.451Z,94300.91
2023-05-22T17:03:43.294Z,94313.59
2023-05-22T17:06:10.160Z,94306.78
2023-05-22T17:08:36.895Z,94301.31
2023-05-22T17:11:03.680Z,94304.28
2023-05-22T17:13:30.397Z,94307.56
2023-05-22T17:15:57.146Z,94310.34
2023-05-22T17:18:23.930Z,94311.50
2023-05-22T17:20:52.060Z,94306.19
2023-05-22T17:23:18.769Z,94302.69
2023-05-22T17:25:48.229Z,94313.69
2023-05-22T17:28:15.423Z,94317.59
2023-05-22T17:30:43.299Z,94311.38
2023-05-22T17:33:10.989Z,94314.38
2023-05-22T17:35:38.009Z,94317.28
2023-05-22T17:38:04.798Z,94316.34
2023-05-22T17:43:02.645Z,94319.69
2023-05-22T17:45:30.024Z,94319.16
2023-05-22T17:47:56.883Z,94321.06
2023-05-22T17:50:23.639Z,94332.47
2023-05-22T17:52:50.730Z,94337.75
2023-05-22T17:55:17.787Z,94343.31
2023-05-22T17:57:44.469Z,94332.91
2023-05-22T18:00:12.005Z,94341.75
2023-05-22T18:02:39.102Z,94343.84
2023-05-22T18:05:06.561Z,94347.44
2023-05-22T18:07:33.248Z,94344.06
2023-05-22T18:09:59.993Z,94353.84
2023-05-22T18:12:31.668Z,94362.59
2023-05-22T18:14:59.250Z,94369.97
2023-05-22T18:17:26.060Z,94393.19
2023-05-22T18:19:52.863Z,94388.16
2023-05-22T18:22:19.576Z,94394.72
2023-05-22T18:24:46.221Z,94392.16
2023-05-22T18:27:12.880Z,94389.91
2023-05-22T18:29:40.164Z,94397.47
2023-05-22T18:32:09.585Z,94398.66
2023-05-22T18:34:37.819Z,94406.03
2023-05-22T18:37:04.778Z,94413.31
2023-05-22T18:39:31.661Z,94413.81
2023-05-22T18:41:58.698Z,94406.66
2023-05-22T18:44:25.424Z,94403.06
2023-05-22T18:46:52.310Z,94396.88
2023-05-22T18:49:19.500Z,94393.66
2023-05-22T18:51:46.407Z,94392.25
2023-05-22T18:54:13.154Z,94390.75
2023-05-22T18:56:40.012Z,94402.34
2023-05-22T18:59:06.780Z,94398.50
2023-05-22T19:01:33.638Z,94403.53
2023-05-22T19:04:00.678Z,94402.38
2023-05-22T19:06:27.450Z,94397.47
2023-05-22T19:08:54.162Z,94405.91
2023-05-22T19:11:20.950Z,94410.44
2023-05-22T19:13:47.658Z,94415.94
2023-05-22T19:16:14.755Z,94420.34
2023-05-22T19:18:41.596Z,94428.53
2023-05-22T19:21:08.320Z,94426.31
2023-05-22T19:23:35.049Z,94428.03
2023-05-22T19:26:01.949Z,94430.94
2023-05-22T19:28:31.045Z,94439.44
2023-05-22T19:30:59.998Z,94433.03
2023-05-22T19:33:27.454Z,94438.72
2023-05-22T19:35:54.123Z,94445.69
2023-05-22T19:38:20.940Z,94446.16
2023-05-22T19:40:47.735Z,94443.22
2023-05-22T19:43:14.654Z,94443.31
2023-05-22T19:45:41.448Z,94438.28
2023-05-22T19:48:08.405Z,94428.72
2023-05-22T19:50:38.403Z,94431.47
2023-05-22T19:53:05.340Z,94434.63
2023-05-22T19:55:32.099Z,94440.16
2023-05-22T19:57:58.793Z,94433.13
2023-05-22T20:00:28.569Z,94434.31
2023-05-22T20:02:55.950Z,94433.50
2023-05-22T20:05:22.756Z,94435.75
2023-05-22T20:07:49.489Z,94430.03
2023-05-22T20:10:16.378Z,94434.41
2023-05-22T20:12:43.155Z,94444.19
2023-05-22T20:15:10.677Z,94452.97
2023-05-22T20:17:38.590Z,94451.53
2023-05-22T20:20:07.724Z,94455.25
2023-05-22T20:22:34.367Z,94447.41
2023-05-22T20:25:01.559Z,94449.81
2023-05-22T20:27:28.316Z,94448.00
2023-05-22T20:29:55.055Z,94446.47
2023-05-22T20:32:22.439Z,94452.84
2023-05-22T20:34:50.148Z,94442.44
2023-05-22T20:37:16.800Z,94446.13
2023-05-22T20:39:44.403Z,94448.25
2023-05-22T20:42:13.085Z,94450.66
2023-05-22T20:44:41.361Z,94455.50
2023-05-22T20:47:09.419Z,94454.63
2023-05-22T20:49:36.094Z,94455.63
2023-05-22T20:52:02.955Z,94457.31
2023-05-22T20:54:34.272Z,94451.00
2023-05-22T20:57:01.975Z,94452.69
2023-05-22T20:59:29.196Z,94455.81
2023-05-22T21:01:59.569Z,94460.06
2023-05-22T21:04:26.403Z,94477.78
2023-05-22T21:06:53.248Z,94487.88
2023-05-22T21:09:19.966Z,94493.38
2023-05-22T21:11:47.110Z,94500.41
2023-05-22T21:14:14.086Z,94498.44
2023-05-22T21:16:40.897Z,94498.38
2023-05-22T21:19:07.760Z,94498.25
2023-05-22T21:21:36.322Z,94496.88
2023-05-22T21:24:03.507Z,94493.63
2023-05-22T21:26:30.242Z,94491.97
2023-05-22T21:28:57.298Z,94500.50
2023-05-22T21:31:24.101Z,94492.91
2023-05-22T21:33:50.956Z,94501.06
2023-05-22T21:36:17.676Z,94504.66
2023-05-22T21:38:45.103Z,94505.50
2023-05-22T21:41:12.194Z,94501.44
2023-05-22T21:43:39.121Z,94499.84
2023-05-22T21:46:05.867Z,94503.78
2023-05-22T21:48:32.608Z,94496.19
2023-05-22T21:50:59.504Z,94489.84
2023-05-22T21:53:26.195Z,94485.50
2023-05-22T21:55:52.933Z,94480.41
2023-05-22T21:58:19.666Z,94488.13
2023-05-22T22:00:46.489Z,94490.66
2023-05-22T22:03:13.496Z,94485.56
2023-05-22T22:05:40.344Z,94481.34
2023-05-22T22:08:07.097Z,94475.03
2023-05-22T22:10:33.891Z,94470.50
2023-05-22T22:13:01.758Z,94465.41
2023-05-22T22:15:28.555Z,94472.56
2023-05-22T22:17:59.600Z,94463.56
2023-05-22T22:20:42.484Z,94454.00
2023-05-22T22:23:11.460Z,94469.72
2023-05-22T22:25:39.443Z,94466.75
2023-05-22T22:28:07.457Z,94467.66
2023-05-22T22:30:35.438Z,94472.53
2023-05-22T22:33:02.594Z,94472.94
2023-05-22T22:35:29.503Z,94476.72
2023-05-22T22:37:56.199Z,94478.38
2023-05-22T22:40:24.719Z,94478.59
2023-05-22T22:42:52.692Z,94477.06
2023-05-22T22:45:19.489Z,94486.53
2023-05-22T22:47:46.198Z,94493.53
2023-05-22T22:50:12.953Z,94501.03
2023-05-22T22:52:45.761Z,94493.41
2023-05-22T22:55:12.701Z,94490.31
2023-05-22T22:57:39.462Z,94495.31
2023-05-22T23:00:06.919Z,94494.13
2023-05-22T23:02:33.615Z,94502.50
2023-05-22T23:05:00.703Z,94503.59
2023-05-22T23:07:28.227Z,94495.31
2023-05-22T23:09:54.955Z,94494.97
2023-05-22T23:12:21.663Z,94504.59
2023-05-22T23:14:50.543Z,94504.28
2023-05-22T23:17:17.307Z,94506.63
2023-05-22T23:19:44.807Z,94498.16
2023-05-22T23:22:11.476Z,94498.53
2023-05-22T23:24:38.255Z,94499.66
2023-05-22T23:27:05.531Z,94503.34
2023-05-22T23:29:32.268Z,94509.78
2023-05-22T23:31:59.157Z,94506.78
2023-05-22T23:34:26.089Z,94516.56
2023-05-22T23:36:52.739Z,94514.84
2023-05-22T23:39:19.415Z,94521.22
2023-05-22T23:41:46.122Z,94516.66
2023-05-22T23:44:12.793Z,94526.59
2023-05-22T23:46:39.836Z,94521.66
2023-05-22T23:49:07.569Z,94514.78
2023-05-22T23:51:34.413Z,94527.19
2023-05-22T23:54:01.364Z,94516.22
2023-05-22T23:56:28.415Z,94523.16
2023-05-22T23:58:55.132Z,94523.69
